Logo AVAMET
Benvolgut visitant, si us plau, ingressa Recuperar contrasenya

Elx Velarde

Dades diàries. Acumulats / Últims 30 dies disponibles

Data Temperatura (°C) Humitat rel. (%) Pressió rel. (hPa) Vent (km/h) Precipitació
Mínima Mitjana Màxima Amplitud
tèrmica
Mínima Mitjana Màxima Mínima Mitjana Màxima Predom. Mitjana Ràfega
màxima
Total
(mm)
Índex-n
Mínima Mitjana Màxima Mínima Mitjana Màxima n
0 a 1
P0 max
mm 5'
Dades mensuals acumulades fins l'últim dia disponible
05/2019 12,2 15,8 21,0 19,9 19,3 24,0 30,8 18,6 23 61 94 1.002 1.014 1.025   45,0 0,3
Dades anuals acumulades fins l'últim dia disponible
2019 3,2 11,2 21,0 15,6 13,1 20,0 30,8 27,6 13 57 98 995 1.019 1.034   54,0 138,2
Últims 30 dies disponibles
24-05-2019 17,6     20,4     23,1 5,5 35 58 81 1.012 1.014 1.015 25,0 0,0
23-05-2019 15,3     21,2     27,1 11,8 23 52 80 1.015 1.017 1.019 23,0 0,0
22-05-2019 15,1     20,2     25,3 10,2 29 57 85 1.017 1.018 1.019 27,0 0,0
21-05-2019 17,0     20,8     24,5 7,5 45 66 86 1.013 1.015 1.017 29,0 0,0
20-05-2019 14,4     18,8     23,2 8,8 51 67 83 1.011 1.013 1.014 23,0 0,0
19-05-2019 14,1     17,9     21,8 7,7 35 58 81 1.009 1.011 1.012 27,0 0,0
18-05-2019 16,4     18,9     21,3 4,9 37 58 79 1.008 1.010 1.011 25,0 0,0
17-05-2019 16,8     21,1     25,4 8,6 26 56 85 1.002 1.006 1.009 42,0 0,0
16-05-2019 17,3     20,1     22,8 5,5 48 67 85 1.006 1.010 1.014 26,0 0,0
15-05-2019 14,2     20,4     26,6 12,4 38 62 85 1.010 1.013 1.016 25,0 0,0
14-05-2019 14,0     18,5     23,0 9,0 39 60 81 1.016 1.019 1.021 28,0 0,0
13-05-2019 15,3     18,7     22,1 6,8 48 69 89 1.018 1.020 1.021 22,0 0,0
12-05-2019 17,2     19,6     22,1 4,9 48 66 83 1.020 1.023 1.025 25,0 0,0
11-05-2019 21,0     25,7     30,4 9,4 34 48 61 1.015 1.019 1.022 31,0 0,0
10-05-2019 19,5     24,9     30,3 10,8 35 60 84 1.012 1.014 1.015 27,0 0,0
09-05-2019 20,4     24,2     28,1 7,7 37 58 79 1.012 1.013 1.014 30,0 0,0
08-05-2019 15,5     23,1     30,8 15,3 28 61 94 1.010 1.013 1.015 45,0 0,0
07-05-2019 16,1     19,2     22,3 6,2 64 77 89 1.015 1.017 1.019 23,0 0,0
06-05-2019 13,0     16,9     20,8 7,8 63 74 85 1.017 1.018 1.019 26,0 0,0
05-05-2019 14,7     17,0     19,3 4,6 47 64 81 1.011 1.014 1.017 28,0 0,0
04-05-2019 12,2     15,9     19,6 7,4 42 63 83 1.012 1.013 1.014 30,0 0,3
03-05-2019 13,6     17,5     21,4 7,8 45 63 81 1.009 1.012 1.014 26,0 0,0
02-05-2019 14,4     18,9     23,4 9,0 34 53 72 1.013 1.014 1.015 29,0 0,0
01-05-2019 13,9     18,0     22,1 8,2 26 59 91 1.013 1.015 1.017 22,0 0,0
30-04-2019 13,3     17,0     20,7 7,4 55 73 90 1.016 1.018 1.019 26,0 0,0
28-04-2019 13,3     17,8     22,2 8,9 31 57 83 1.019 1.022 1.025 22,0 0,0
27-04-2019 12,9     17,1     21,2 8,3 41 63 84 1.024 1.025 1.026 25,0 0,0
26-04-2019 13,2     18,5     23,8 10,6 30 54 77 1.018 1.022 1.025 26,0 0,0
25-04-2019 12,1     18,0     23,9 11,8 37 64 90 1.011 1.015 1.018 29,0 0,0
24-04-2019 9,8     15,2     20,6 10,8 40 60 79 1.005 1.009 1.012 36,0 0,0
Últims 13 mesos disponibles
04/2019 8,1 12,6 16,2 16,6 15,1 20,5 28,2 20,1 39 61 85 1.002 1.013 1.025 50,0 121,6
03/2019 7,6 10,8 13,9 15,5 14,2 20,2 28,6 21,0 35 56 83 1.012 1.023 1.030 43,0 14,5
02/2019 5,9 9,1 12,9 13,9 14,7 18,7 25,7 19,8 32 56 73 999 1.025 1.033 54,0 0,3
01/2019 3,2 8,6 13,6 13,0 13,1 17,4 21,9 18,7 35 53 72 1.006 1.019 1.031 51,0 1,5
12/2018 7,3 10,6 14,2 15,1 14,8 19,5 26,6 19,3 45 61 78 1.011 1.025 1.031 53,0 7,6
11/2018 8,5 12,4 15,5 16,0 14,8 19,6 23,7 15,2 41 64 84 1.001 1.015 1.023 51,0 35,1
10/2018 9,7 16,2 20,1 20,2 14,8 24,2 28,3 18,6 37 64 76 1.000 1.014 1.025 50,0 31,8
09/2018 16,7 21,7 23,8 25,5 26,2 29,2 32,1 15,4 56 68 81 1.012 1.018 1.026 80,0 19,6
08/2018 21,0 24,0 27,7 28,0 28,5 32,0 36,6 15,6 41 64 81 1.013 1.016 1.020 42,0 5,8
07/2018 21,1 23,2 25,3 27,4 29,4 31,6 36,6 15,5 44 62 75 1.009 1.014 1.019 39,0 0,0
06/2018 15,4 19,7 22,7 24,1 23,9 28,4 32,3 16,9 49 60 74 1.009 1.015 1.021 38,0 13,8
05/2018 10,4 15,7 19,4 19,9 18,4 24,0 27,9 17,5 45 62 76 1.010 1.014 1.018 38,0 3,6
04/2018 8,8 13,7 20,4 17,8 16,2 21,9 27,1 18,3 38 56 78 999 1.013 1.024 50,0 9,6
Tots els anys disponibles
2018 3,8 15,6 27,7 19,8 10,6 23,9 36,6 32,8 35 61 85 994 1.016 1.033 80,0 210,4
Temperatura (°C)
Humitat relativa (%)
Velocitat del vent i ràfega màxima (km/h)
Direcció del vent (°)
Pressió (hPa)
Precipitació (mm)
Nota sobre les dades: s'avisa a l'usuari de la provisionalitat i no oficialitat d'aquestes dades
Logo AVAMET blanc
Web allotjada a Sollutia
Llicència de Creative CommonsLa web d'AVAMET i els seus continguts estan subjectes a una llicència de
Reconeixement - No Comercial - Compartir igual
Properes estacions: Altea - Club Nàutic d'Altea (Soci), Ontinyent - El Pilar (Soci), Ares del Maestrat (Ajuntament Soci), Catadau - L'Altet (Inforatge)     - - - - -      Últimes estacions: Asp - Poliesportiu (Soci), Jacarilla - centro (MeteOrihuela), Elx - Maitino/Vallverda/Velarde/Matola/Ferriol (Soci TiempoElche.com), Orihuela - Playa Flamenca (MeteOrihuela), - - -